Terminal Aerodrome Forecast
Issued by NWS Grand Forks, ND

Home | Current Version | Previous Version | Text Only | Print | Product List | Glossary Off
Versions: 1 2 3 4 5 6 7 8 9 10 11 12 13 14 15 16 17

000
FTUS43 KFGF 150225 AAA
TAFFAR
TAF AMD
KFAR 150225Z 1502/1524 34022G32KT 1SM BLSN OVC015
     FM150400 34018G26KT 3SM BLSN BKN035
     FM151500 34018KT 5SM BLSN BKN030
     FM151600 34018KT 2SM BLSN BKN025
     FM151800 34018KT P6SM BKN015
     FM151900 34018G26KT P6SM BKN008
     FM152300 34014KT P6SM BKN040=

USA.gov is the U.S. government's official web portal to all federal, state and local government web resources and services.